• Join FlightAware (Why Join?)
  • Login
  • US Flag 
10:02AM EDT


 

Airport Tracker/Info


-or-


 

Live Flight TrackerFlight Track Log ✈ AWE3397 ✈ 30-Jul-2013 ✈ KPHL - KMSY

Flight Track Log - Related Links

Times and Time Zones

All times are in EDT time to prevent confusion due to time zone crossing. See the AWE3397 flight status page for this flight to view local times or setup timezone preferences in your user account.

Time Position Orientation Groundspeed Altitude Reporting Facility
EDT Latitude Longitude Course Direction KTS MPH feet Rate Location/Type
08:23AM 39.8667 -75.2833 270° West 165 190 900  Level Philadelphia TRACON
08:24AM 39.8500 -75.3333 247° West 192 221 2,100 2,220 Climbing Philadelphia TRACON
08:25AM 39.8333 -75.6072 270° West  Level FlightAware Approximate
08:26AM 39.8333 -75.7374 270° West  Level FlightAware Approximate
08:26AM 39.8231 -75.5414 260° West 257 296 8,300  Level New York Center
08:27AM 39.8196 -75.8658 258° West  Level FlightAware Approximate
08:27AM 39.8294 -75.6394 275° West 277 319 10,000  Level New York Center
08:28AM 39.8000 -75.9933 270° West  Level FlightAware Approximate
08:28AM 39.8292 -75.7500 270° West 291 335 11,100  Level New York Center
08:29AM 39.8247 -75.8553 267° West 303 349 13,500 1,920 Climbing New York Center
08:30AM 39.8219 -75.9658 268° West 311 358 15,000 720 Climbing New York Center
08:31AM 39.8167 -76.0844 267° West 316 364 15,000  Level New York Center
08:32AM 39.8011 -76.1942 260° West 316 364 15,000 900 Level New York Center
08:33AM 39.7628 -76.3019 245° Southwest 327 376 16,900 1,560 Climbing New York Center
08:34AM 39.7228 -76.3986 242° Southwest 333 383 18,100 1,380 Climbing New York Center
08:35AM 39.6797 -76.5111 244° Southwest 345 397 19,700 1,740 Climbing New York Center
08:36AM 39.6383 -76.6156 243° Southwest 351 404 21,200 1,620 Climbing Washington Center
08:37AM 39.5958 -76.7172 242° Southwest 338 389 22,600 1,380 Climbing Washington Center
08:38AM 39.5531 -76.8322 244° Southwest 349 402 24,000 1,500 Climbing Washington Center
08:39AM 39.5081 -76.9472 243° Southwest 354 407 25,600 1,320 Climbing Washington Center
08:40AM 39.4361 -77.0453 226° Southwest 359 413 26,700 1,140 Climbing Washington Center
08:41AM 39.3517 -77.1294 218° Southwest 370 426 28,000 1,080 Climbing Washington Center
08:42AM 39.2650 -77.2189 219° Southwest 384 442 28,900 900 Climbing Washington Center
08:43AM 39.1761 -77.3133 219° Southwest 405 466 29,800 900 Climbing Washington Center
08:44AM 39.0872 -77.4072 219° Southwest 417 480 30,800 960 Climbing Washington Center
08:45AM 38.9942 -77.5011 218° Southwest 427 491 31,800 960 Climbing Washington Center
08:46AM 38.9008 -77.5975 219° Southwest 433 498 32,800 960 Climbing Washington Center
08:47AM 38.8117 -77.6856 218° Southwest 439 505 33,700 1,140 Climbing Washington Center
08:48AM 38.7203 -77.7842 220° Southwest 444 511 35,100 1,080 Climbing Washington Center
08:49AM 38.6311 -77.8800 220° Southwest 437 503 36,000 420 Climbing Washington Center
08:50AM 38.5664 -77.9894 233° Southwest 411 473 36,000  Level Washington Center
08:51AM 38.5014 -78.1014 233° Southwest 406 467 36,000  Level Washington Center
08:52AM 38.4344 -78.2158 233° Southwest 406 467 36,000  Level Washington Center
08:53AM 38.3650 -78.3325 233° Southwest 406 467 36,000  Level Washington Center
08:54AM 38.2978 -78.4464 233° Southwest 406 467 36,000  Level Washington Center
08:55AM 38.2344 -78.5631 235° Southwest 406 467 36,000  Level Washington Center
08:56AM 38.1650 -78.6764 232° Southwest 406 467 36,000  Level Washington Center
08:57AM 38.0928 -78.8000 233° Southwest 406 467 36,000  Level Washington Center
08:58AM 38.0231 -78.9131 232° Southwest 406 467 36,000  Level Washington Center
08:59AM 37.9531 -79.0286 232° Southwest 406 467 36,000  Level Washington Center
09:00AM 37.8872 -79.1414 234° Southwest 406 467 36,000  Level Washington Center
09:01AM 37.8339 -79.2519 239° Southwest 411 473 36,000  Level Washington Center
09:02AM 37.7758 -79.3725 239° Southwest 411 473 36,000  Level Washington Center
09:03AM 37.7047 -79.5056 236° Southwest 416 479 36,000  Level Washington Center
09:04AM 37.6422 -79.6281 237° Southwest 416 479 36,000  Level Washington Center
09:05AM 37.5819 -79.7508 238° Southwest 421 484 36,000  Level Washington Center
09:06AM 37.5256 -79.8708 239° Southwest 428 493 36,000  Level Washington Center
09:07AM 37.4606 -79.9900 236° Southwest 428 493 36,000  Level Washington Center
09:08AM 37.3975 -80.1144 237° Southwest 428 493 36,000  Level Washington Center
09:09AM 37.2886 -80.3242 237° Southwest 399 459 36,000  Level Atlanta Center
09:10AM 37.2294 -80.4367 237° Southwest 407 468 36,000  Level Atlanta Center
09:11AM 37.1664 -80.5592 237° Southwest 419 482 36,000  Level Atlanta Center
09:12AM 37.1050 -80.6792 237° Southwest 419 482 36,000  Level Atlanta Center
09:13AM 37.0461 -80.8194 242° Southwest 419 482 36,000  Level Atlanta Center
09:14AM 37.0017 -80.9486 247° West 413 475 36,000  Level Atlanta Center
09:15AM 36.9464 -81.0753 241° Southwest 413 475 36,000  Level Atlanta Center
09:16AM 36.8886 -81.1867 237° Southwest 428 493 36,000  Level Atlanta Center
09:17AM 36.8267 -81.3081 238° Southwest 428 493 36,000  Level Atlanta Center
09:18AM 36.7606 -81.4347 237° Southwest 409 471 36,000  Level Atlanta Center
09:19AM 36.7044 -81.5478 238° Southwest 409 471 36,000  Level Atlanta Center
09:20AM 36.6381 -81.6689 236° Southwest 425 489 36,000  Level Atlanta Center
09:21AM 36.5736 -81.7925 237° Southwest 425 489 36,000  Level Atlanta Center
09:22AM 36.5111 -81.9103 237° Southwest 425 489 36,000  Level Atlanta Center
09:23AM 36.4444 -82.0333 236° Southwest 425 489 36,000  Level Atlanta Center
09:24AM 36.3775 -82.1536 235° Southwest 420 483 36,000  Level Atlanta Center
09:25AM 36.3147 -82.2789 238° Southwest 420 483 36,000  Level Atlanta Center
09:26AM 36.2475 -82.4014 236° Southwest 420 483 36,000  Level Atlanta Center
09:27AM 36.1764 -82.5367 237° Southwest 420 483 36,000  Level Atlanta Center
09:28AM 36.1089 -82.6561 235° Southwest 426 490 36,000  Level Atlanta Center
09:29AM 36.0436 -82.7806 237° Southwest 426 490 36,000  Level Atlanta Center
09:30AM 35.9758 -82.9019 235° Southwest 431 496 36,000  Level Atlanta Center
09:31AM 35.9081 -83.0261 236° Southwest 436 502 36,000  Level Atlanta Center
09:32AM 35.8422 -83.1497 237° Southwest 436 502 36,000  Level Atlanta Center
09:33AM 35.7825 -83.2581 236° Southwest 442 509 36,000  Level Atlanta Center
09:34AM 35.7144 -83.3814 236° Southwest 442 509 36,000  Level Atlanta Center
09:35AM 35.6461 -83.4994 235° Southwest 442 509 36,000  Level Atlanta Center
09:36AM 35.5797 -83.6225 236° Southwest 442 509 36,000  Level Atlanta Center
09:37AM 35.5114 -83.7453 236° Southwest 442 509 36,000  Level Atlanta Center
09:38AM 35.4428 -83.8706 236° Southwest 447 514 36,000  Level Atlanta Center
09:39AM 35.3761 -83.9903 236° Southwest 447 514 36,000  Level Atlanta Center
09:40AM 35.3072 -84.1125 235° Southwest 447 514 36,000  Level Atlanta Center
09:41AM 35.2361 -84.2344 234° Southwest 447 514 36,000  Level Atlanta Center
09:42AM 35.1692 -84.3564 236° Southwest 447 514 36,000  Level Atlanta Center
09:43AM 35.1000 -84.4753 235° Southwest 447 514 36,000  Level Atlanta Center
09:44AM 35.0328 -84.5969 236° Southwest 447 514 36,000  Level Atlanta Center
09:45AM 34.9653 -84.7156 235° Southwest 442 509 36,000  Level Atlanta Center
09:46AM 34.8958 -84.8364 235° Southwest 442 509 36,000  Level Atlanta Center
09:47AM 34.8261 -84.9572 235° Southwest 447 514 36,000  Level Atlanta Center
09:48AM 34.7519 -85.0856 235° Southwest 442 509 36,000  Level Atlanta Center
09:49AM 34.6819 -85.2058 235° Southwest 442 509 36,000  Level Atlanta Center
09:50AM 34.6142 -85.3261 236° Southwest 442 509 36,000  Level Atlanta Center
09:51AM 34.5439 -85.4433 234° Southwest 442 509 36,000  Level Atlanta Center
09:52AM 34.4736 -85.5633 235° Southwest 442 509 36,000  Level Atlanta Center
09:53AM 34.4072 -85.6828 236° Southwest 442 509 36,000  Level Atlanta Center
09:54AM 34.3369 -85.7972 233° Southwest 442 509 36,000  Level Atlanta Center
09:55AM 34.2728 -85.8989 233° Southwest 437 503 36,000  Level Atlanta Center
09:56AM 34.1978 -86.0281 235° Southwest 437 503 36,000  Level Atlanta Center
09:57AM 34.1269 -86.1442 234° Southwest 437 503 36,000  Level Atlanta Center
09:58AM 34.0558 -86.2628 234° Southwest 442 509 36,000  Level Atlanta Center
09:59AM 33.9828 -86.3811 233° Southwest 442 509 36,000  Level Atlanta Center
10:00AM 33.9094 -86.4992 233° Southwest 447 514 36,000  Level Atlanta Center
10:01AM 33.8381 -86.6197 235° Southwest 447 514 36,000  Level Atlanta Center
10:02AM 33.7667 -86.7375 234° Southwest 447 514 36,000  Level Atlanta Center
10:03AM 33.6953 -86.8528 233° Southwest 442 509 36,000  Level Atlanta Center
10:04AM 33.6217 -86.9700 233° Southwest 447 514 36,000  Level Atlanta Center
10:05AM 33.5436 -87.0844 231° Southwest 447 514 36,000  Level Atlanta Center
10:06AM 33.4697 -87.2014 233° Southwest 447 514 36,000  Level Atlanta Center
10:07AM 33.3917 -87.3156 231° Southwest 447 514 36,000  Level Atlanta Center
10:08AM 33.3156 -87.4294 231° Southwest 453 521 36,000  Level Atlanta Center
10:09AM 33.2392 -87.5458 232° Southwest 458 527 36,000  Level Atlanta Center
10:11AM 33.1342 -87.7028 231° Southwest 471 542 36,000  Level Memphis Center
10:12AM 33.0469 -87.8269 230° Southwest 458 527 36,000  Level Memphis Center
10:13AM 32.9800 -87.9303 232° Southwest 453 521 36,000  Level Memphis Center
10:14AM 32.9050 -88.0461 232° Southwest 453 521 36,000  Level Memphis Center
10:15AM 32.8256 -88.1569 230° Southwest 453 521 36,000  Level Memphis Center
10:16AM 32.7503 -88.2675 231° Southwest 453 521 36,000  Level Memphis Center
10:17AM 32.6708 -88.3831 231° Southwest 453 521 36,000  Level Memphis Center
10:18AM 32.5953 -88.4956 231° Southwest 453 521 36,000  Level Memphis Center
10:19AM 32.5175 -88.6056 230° Southwest 453 521 36,000  Level Memphis Center
10:20AM 32.4397 -88.7203 231° Southwest 453 521 36,000  Level Memphis Center
10:21AM 32.3578 -88.8253 227° Southwest 453 521 36,000  Level Memphis Center
10:22AM 32.2647 -88.9178 220° Southwest 442 509 36,000  Level Memphis Center
10:23AM 32.1697 -89.0075 219° Southwest 447 514 36,000 -60 Level Memphis Center
10:24AM 32.0644 -89.1119 220° Southwest 454 522 35,900 -360 Descending Memphis Center
10:25AM 31.9692 -89.2039 219° Southwest 454 522 35,300 -1,080 Descending Memphis Center
10:26AM 31.8719 -89.2958 219° Southwest 449 517 33,800 -2,340 Descending Memphis Center
10:27AM 31.7778 -89.3872 220° Southwest 450 518 30,700 -3,000 Descending Houston Center
10:28AM 31.6822 -89.4783 219° Southwest 448 516 27,700 -2,880 Descending Houston Center
10:29AM 31.5886 -89.5667 219° Southwest 439 505 24,800 -1,800 Descending Houston Center
10:30AM 31.5028 -89.6483 219° Southwest 410 472 24,000 -600 Descending Houston Center
10:31AM 31.4175 -89.7286 219° Southwest 395 455 23,600 -1,020 Descending Houston Center
10:32AM 31.3150 -89.8256 219° Southwest 396 456 22,000 -1,440 Descending Houston Center
10:33AM 31.2322 -89.9033 219° Southwest 389 448 20,700 -1,260 Descending Houston Center
10:34AM 31.1486 -89.9794 218° Southwest 382 440 19,400 -1,260 Descending Houston Center
10:35AM 31.0689 -90.0536 219° Southwest 373 429 18,100 -1,260 Descending Houston Center
10:36AM 30.9914 -90.1272 219° Southwest 367 422 16,800 -1,380 Descending Houston Center
10:37AM 30.8931 -90.1781 204° Southwest 354 407 15,300 -1,320 Descending Houston Center
10:38AM 30.7942 -90.1867 184° South 347 399 14,100 -1,200 Descending Houston Center
10:39AM 30.6994 -90.1922 183° South 344 396 12,900 -1,020 Descending Houston Center
10:40AM 30.6097 -90.1981 183° South 334 384 12,000 -960 Descending Houston Center
10:41AM 30.5225 -90.2122 188° South 325 374 11,000 -1,260 Descending Houston Center
10:42AM 30.4456 -90.2394 197° South 308 354 9,500 -1,500 Descending Houston Center
10:43AM 30.3611 -90.2692 197° South 283 326 7,900 -1,320 Descending Houston Center
10:44AM 30.2844 -90.2944 196° South 269 310 6,800 -1,020 Descending Houston Center
10:45AM 30.2167 -90.3144 194° South 266 306 5,800 -1,380 Descending Houston Center
10:47AM 30.1417 -90.3386 196° South 241 277 3,900 -1,320 Descending Houston Center
10:48AM 30.0817 -90.3578 195° South 216 249 3,000 -480 Descending Houston Center
10:49AM 30.0217 -90.3769 195° South 223 257 3,000 -300 Level Houston Center
10:50AM 29.9594 -90.3961 195° South 214 246 2,500 -480 Descending Houston Center
10:51AM 29.9089 -90.3961 180° South 198 228 2,000 -240 Descending Houston Center
10:52AM 29.8931 -90.3436 109° East 172 198 2,000  Level Houston Center
10:53AM 29.8997 -90.2881 82° East 175 201 2,000 -540 Level Houston Center
10:54AM 29.9367 -90.2675 26° Northeast 149 171 1,000 -840 Descending Houston Center
10:55AM 29.9719 -90.2564 15° North 127 146 300 -720 Descending Houston Center